sensor_id;sensor_type;location;lat;lon;timestamp;pressure;altitude;pressure_sealevel;temperature;humidity
43745;BME280;29359;53.048;8.732;2023-05-23T00:00:50;101509.94;;;14.76;91.83
43745;BME280;29359;53.048;8.732;2023-05-23T00:02:52;101502.03;;;14.74;91.80
43745;BME280;29359;53.048;8.732;2023-05-23T00:04:54;101502.03;;;14.74;92.17
43745;BME280;29359;53.048;8.732;2023-05-23T00:06:58;101496.66;;;14.76;91.95
43745;BME280;29359;53.048;8.732;2023-05-23T00:09:01;101494.81;;;14.78;91.99
43745;BME280;29359;53.048;8.732;2023-05-23T00:11:02;101495.63;;;14.80;91.91
43745;BME280;29359;53.048;8.732;2023-05-23T00:13:04;101493.84;;;14.81;91.77
43745;BME280;29359;53.048;8.732;2023-05-23T00:15:09;101488.69;;;14.76;91.91
43745;BME280;29359;53.048;8.732;2023-05-23T00:17:11;101486.94;;;14.75;92.19
43745;BME280;29359;53.048;8.732;2023-05-23T00:19:12;101485.16;;;14.75;92.36
43745;BME280;29359;53.048;8.732;2023-05-23T00:21:17;101487.84;;;14.74;92.31
43745;BME280;29359;53.048;8.732;2023-05-23T00:23:19;101493.13;;;14.75;92.27
43745;BME280;29359;53.048;8.732;2023-05-23T00:25:21;101487.03;;;14.72;92.31
43745;BME280;29359;53.048;8.732;2023-05-23T00:27:23;101495.91;;;14.71;92.49
43745;BME280;29359;53.048;8.732;2023-05-23T00:29:25;101491.41;;;14.73;92.06
43745;BME280;29359;53.048;8.732;2023-05-23T00:31:26;101484.31;;;14.73;91.39
43745;BME280;29359;53.048;8.732;2023-05-23T00:33:28;101483.72;;;14.65;91.48
43745;BME280;29359;53.048;8.732;2023-05-23T00:35:30;101491.84;;;14.61;91.74
43745;BME280;29359;53.048;8.732;2023-05-23T00:37:31;101481.38;;;14.56;92.22
43745;BME280;29359;53.048;8.732;2023-05-23T00:39:34;101488.47;;;14.56;92.48
43745;BME280;29359;53.048;8.732;2023-05-23T00:41:35;101484.13;;;14.53;92.36
43745;BME280;29359;53.048;8.732;2023-05-23T00:43:38;101484.19;;;14.52;92.06
43745;BME280;29359;53.048;8.732;2023-05-23T00:45:39;101482.41;;;14.52;92.22
43745;BME280;29359;53.048;8.732;2023-05-23T00:47:41;101486.91;;;14.50;92.30
43745;BME280;29359;53.048;8.732;2023-05-23T00:49:44;101478.06;;;14.50;92.23
43745;BME280;29359;53.048;8.732;2023-05-23T00:51:46;101485.16;;;14.49;92.07
43745;BME280;29359;53.048;8.732;2023-05-23T00:53:49;101488.63;;;14.51;92.47
43745;BME280;29359;53.048;8.732;2023-05-23T00:55:51;101485.13;;;14.51;92.29
43745;BME280;29359;53.048;8.732;2023-05-23T00:57:53;101483.31;;;14.51;91.89
43745;BME280;29359;53.048;8.732;2023-05-23T00:59:58;101478.88;;;14.52;91.73
43745;BME280;29359;53.048;8.732;2023-05-23T01:02:00;101479.75;;;14.52;91.70
43745;BME280;29359;53.048;8.732;2023-05-23T01:04:03;101473.47;;;14.55;92.05
43745;BME280;29359;53.048;8.732;2023-05-23T01:06:05;101474.22;;;14.58;91.70
43745;BME280;29359;53.048;8.732;2023-05-23T01:08:06;101470.69;;;14.58;91.59
43745;BME280;29359;53.048;8.732;2023-05-23T01:10:09;101474.28;;;14.57;91.70
43745;BME280;29359;53.048;8.732;2023-05-23T01:12:30;101462.84;;;14.55;91.81
43745;BME280;29359;53.048;8.732;2023-05-23T01:14:46;101465.50;;;14.55;91.63
43745;BME280;29359;53.048;8.732;2023-05-23T01:16:56;101462.03;;;14.53;91.52
43745;BME280;29359;53.048;8.732;2023-05-23T01:19:50;101456.75;;;14.51;91.93
43745;BME280;29359;53.048;8.732;2023-05-23T01:21:31;101455.94;;;14.49;92.07
43745;BME280;29359;53.048;8.732;2023-05-23T01:26:21;101456.81;;;14.50;91.86
43745;BME280;29359;53.048;8.732;2023-05-23T01:28:30;101444.41;;;14.50;92.22
43745;BME280;29359;53.048;8.732;2023-05-23T01:30:35;101450.53;;;14.52;92.12
43745;BME280;29359;53.048;8.732;2023-05-23T01:32:40;101452.16;;;14.56;92.05
43745;BME280;29359;53.048;8.732;2023-05-23T01:34:42;101441.47;;;14.58;92.09
43745;BME280;29359;53.048;8.732;2023-05-23T01:36:48;101451.13;;;14.60;92.02
43745;BME280;29359;53.048;8.732;2023-05-23T01:38:50;101444.00;;;14.61;92.03
43745;BME280;29359;53.048;8.732;2023-05-23T01:40:52;101447.53;;;14.61;91.96
43745;BME280;29359;53.048;8.732;2023-05-23T01:42:54;101440.50;;;14.60;91.84
43745;BME280;29359;53.048;8.732;2023-05-23T01:44:57;101438.75;;;14.59;92.13
43745;BME280;29359;53.048;8.732;2023-05-23T01:47:01;101439.69;;;14.58;91.80
43745;BME280;29359;53.048;8.732;2023-05-23T01:49:06;101439.69;;;14.58;91.98
43745;BME280;29359;53.048;8.732;2023-05-23T01:51:08;101447.66;;;14.58;91.63
43745;BME280;29359;53.048;8.732;2023-05-23T01:53:11;101449.38;;;14.59;92.28
43745;BME280;29359;53.048;8.732;2023-05-23T01:55:15;101443.16;;;14.60;91.95
43745;BME280;29359;53.048;8.732;2023-05-23T01:57:19;101443.09;;;14.62;91.69
43745;BME280;29359;53.048;8.732;2023-05-23T01:59:24;101442.28;;;14.60;92.03
43745;BME280;29359;53.048;8.732;2023-05-23T02:01:26;101447.53;;;14.61;92.43
43745;BME280;29359;53.048;8.732;2023-05-23T02:03:27;101450.19;;;14.61;92.32
43745;BME280;29359;53.048;8.732;2023-05-23T02:05:29;101454.59;;;14.62;92.51
43745;BME280;29359;53.048;8.732;2023-05-23T02:07:31;101444.81;;;14.63;92.43
43745;BME280;29359;53.048;8.732;2023-05-23T02:09:33;101447.47;;;14.63;92.39
43745;BME280;29359;53.048;8.732;2023-05-23T02:11:34;101444.00;;;14.61;92.39
43745;BME280;29359;53.048;8.732;2023-05-23T02:13:36;101459.16;;;14.59;92.49
43745;BME280;29359;53.048;8.732;2023-05-23T02:15:37;101456.59;;;14.56;92.71
43745;BME280;29359;53.048;8.732;2023-05-23T02:17:39;101465.44;;;14.56;93.15
43745;BME280;29359;53.048;8.732;2023-05-23T02:19:41;101462.78;;;14.56;93.18
43745;BME280;29359;53.048;8.732;2023-05-23T02:21:43;101466.31;;;14.57;93.09
43745;BME280;29359;53.048;8.732;2023-05-23T02:23:45;101460.06;;;14.58;93.13
43745;BME280;29359;53.048;8.732;2023-05-23T02:25:46;101464.47;;;14.59;93.08
43745;BME280;29359;53.048;8.732;2023-05-23T02:27:48;101461.84;;;14.57;93.17
43745;BME280;29359;53.048;8.732;2023-05-23T02:29:50;101456.66;;;14.54;93.25
43745;BME280;29359;53.048;8.732;2023-05-23T02:31:51;101457.53;;;14.55;93.58
43745;BME280;29359;53.048;8.732;2023-05-23T02:33:53;101461.03;;;14.55;93.60
43745;BME280;29359;53.048;8.732;2023-05-23T02:35:54;101468.16;;;14.55;93.49
43745;BME280;29359;53.048;8.732;2023-05-23T02:37:56;101462.88;;;14.53;93.73
43745;BME280;29359;53.048;8.732;2023-05-23T02:39:57;101464.72;;;14.51;93.82
43745;BME280;29359;53.048;8.732;2023-05-23T02:41:59;101457.72;;;14.49;93.87
43745;BME280;29359;53.048;8.732;2023-05-23T02:44:00;101459.47;;;14.50;93.98
43745;BME280;29359;53.048;8.732;2023-05-23T02:46:02;101457.63;;;14.52;94.15
43745;BME280;29359;53.048;8.732;2023-05-23T02:48:03;101457.63;;;14.52;94.39
43745;BME280;29359;53.048;8.732;2023-05-23T02:50:06;101457.63;;;14.52;94.08
43745;BME280;29359;53.048;8.732;2023-05-23T02:52:07;101451.44;;;14.51;94.17
43745;BME280;29359;53.048;8.732;2023-05-23T02:54:09;101445.31;;;14.49;94.37
43745;BME280;29359;53.048;8.732;2023-05-23T02:56:11;101449.81;;;14.47;94.61
43745;BME280;29359;53.048;8.732;2023-05-23T02:58:13;101449.88;;;14.45;94.68
43745;BME280;29359;53.048;8.732;2023-05-23T03:00:15;101448.09;;;14.46;94.90
43745;BME280;29359;53.048;8.732;2023-05-23T03:02:17;101452.56;;;14.44;95.00
43745;BME280;29359;53.048;8.732;2023-05-23T03:04:19;101454.44;;;14.40;95.23
43745;BME280;29359;53.048;8.732;2023-05-23T03:06:21;101449.13;;;14.40;95.56
43745;BME280;29359;53.048;8.732;2023-05-23T03:08:23;101450.91;;;14.40;95.83
43745;BME280;29359;53.048;8.732;2023-05-23T03:10:24;101447.50;;;14.36;95.99
43745;BME280;29359;53.048;8.732;2023-05-23T03:12:29;101447.50;;;14.36;96.46
43745;BME280;29359;53.048;8.732;2023-05-23T03:14:30;101449.34;;;14.34;96.81
43745;BME280;29359;53.048;8.732;2023-05-23T03:16:32;101453.78;;;14.34;96.51
43745;BME280;29359;53.048;8.732;2023-05-23T03:18:33;101446.75;;;14.33;96.98
43745;BME280;29359;53.048;8.732;2023-05-23T03:20:35;101452.03;;;14.33;97.39
43745;BME280;29359;53.048;8.732;2023-05-23T03:22:36;101448.56;;;14.31;97.54
43745;BME280;29359;53.048;8.732;2023-05-23T03:24:38;101447.72;;;14.29;98.09
43745;BME280;29359;53.048;8.732;2023-05-23T03:26:39;101445.13;;;14.27;98.16
43745;BME280;29359;53.048;8.732;2023-05-23T03:28:41;101445.13;;;14.27;98.31
43745;BME280;29359;53.048;8.732;2023-05-23T03:30:42;101453.16;;;14.26;98.88
43745;BME280;29359;53.048;8.732;2023-05-23T03:32:44;101454.06;;;14.25;99.22
43745;BME280;29359;53.048;8.732;2023-05-23T03:34:46;101453.25;;;14.23;99.35
43745;BME280;29359;53.048;8.732;2023-05-23T03:36:48;101452.38;;;14.22;99.55
43745;BME280;29359;53.048;8.732;2023-05-23T03:38:51;101454.22;;;14.20;99.44
43745;BME280;29359;53.048;8.732;2023-05-23T03:40:53;101456.06;;;14.18;99.91
43745;BME280;29359;53.048;8.732;2023-05-23T03:43:01;101461.38;;;14.18;100.00
43745;BME280;29359;53.048;8.732;2023-05-23T03:45:04;101456.06;;;14.18;100.00
43745;BME280;29359;53.048;8.732;2023-05-23T03:47:06;101450.81;;;14.17;99.88
43745;BME280;29359;53.048;8.732;2023-05-23T03:49:08;101465.91;;;14.14;100.00
43745;BME280;29359;53.048;8.732;2023-05-23T03:51:09;101464.22;;;14.12;100.00
43745;BME280;29359;53.048;8.732;2023-05-23T03:53:13;101468.78;;;14.08;100.00
43745;BME280;29359;53.048;8.732;2023-05-23T03:55:15;101468.88;;;14.05;100.00
43745;BME280;29359;53.048;8.732;2023-05-23T03:57:16;101462.81;;;14.02;100.00
43745;BME280;29359;53.048;8.732;2023-05-23T03:59:18;101466.44;;;13.99;100.00
43745;BME280;29359;53.048;8.732;2023-05-23T04:01:19;101475.31;;;13.98;100.00
43745;BME280;29359;53.048;8.732;2023-05-23T04:03:21;101477.13;;;13.96;100.00
43745;BME280;29359;53.048;8.732;2023-05-23T04:05:23;101478.06;;;13.95;100.00
43745;BME280;29359;53.048;8.732;2023-05-23T04:07:24;101478.88;;;13.97;100.00
43745;BME280;29359;53.048;8.732;2023-05-23T04:09:26;101485.09;;;13.96;100.00
43745;BME280;29359;53.048;8.732;2023-05-23T04:11:28;101486.16;;;13.91;100.00
43745;BME280;29359;53.048;8.732;2023-05-23T04:13:30;101480.09;;;13.86;100.00
43745;BME280;29359;53.048;8.732;2023-05-23T04:15:31;101486.44;;;13.81;100.00
43745;BME280;29359;53.048;8.732;2023-05-23T04:17:34;101489.19;;;13.78;100.00
43745;BME280;29359;53.048;8.732;2023-05-23T04:19:39;101490.19;;;13.74;100.00
43745;BME280;29359;53.048;8.732;2023-05-23T04:21:40;101493.00;;;13.70;100.00
43745;BME280;29359;53.048;8.732;2023-05-23T04:23:42;101495.69;;;13.68;100.00
43745;BME280;29359;53.048;8.732;2023-05-23T04:25:44;101505.47;;;13.66;100.00
43745;BME280;29359;53.048;8.732;2023-05-23T04:27:45;101498.53;;;13.62;100.00
43745;BME280;29359;53.048;8.732;2023-05-23T04:29:47;101503.94;;;13.59;100.00
43745;BME280;29359;53.048;8.732;2023-05-23T04:31:49;101503.06;;;13.59;100.00
43745;BME280;29359;53.048;8.732;2023-05-23T04:33:51;101497.81;;;13.57;100.00
43745;BME280;29359;53.048;8.732;2023-05-23T04:35:53;101501.38;;;13.56;100.00
43745;BME280;29359;53.048;8.732;2023-05-23T04:37:54;101507.59;;;13.55;100.00
43745;BME280;29359;53.048;8.732;2023-05-23T04:39:57;101505.00;;;13.54;100.00
43745;BME280;29359;53.048;8.732;2023-05-23T04:41:59;101505.03;;;13.52;100.00
43745;BME280;29359;53.048;8.732;2023-05-23T04:44:04;101508.59;;;13.51;100.00
43745;BME280;29359;53.048;8.732;2023-05-23T04:46:08;101504.22;;;13.50;100.00
43745;BME280;29359;53.048;8.732;2023-05-23T04:48:10;101506.91;;;13.48;100.00
43745;BME280;29359;53.048;8.732;2023-05-23T04:50:13;101501.66;;;13.47;100.00
43745;BME280;29359;53.048;8.732;2023-05-23T04:52:15;101508.75;;;13.46;100.00
43745;BME280;29359;53.048;8.732;2023-05-23T04:54:19;101521.13;;;13.46;100.00
43745;BME280;29359;53.048;8.732;2023-05-23T04:56:21;101514.97;;;13.45;100.00
43745;BME280;29359;53.048;8.732;2023-05-23T04:58:23;101516.69;;;13.46;100.00
43745;BME280;29359;53.048;8.732;2023-05-23T05:00:25;101524.72;;;13.43;100.00
43745;BME280;29359;53.048;8.732;2023-05-23T05:02:27;101521.28;;;13.40;100.00
43745;BME280;29359;53.048;8.732;2023-05-23T05:04:28;101534.59;;;13.38;100.00
43745;BME280;29359;53.048;8.732;2023-05-23T05:06:30;101532.03;;;13.35;100.00
43745;BME280;29359;53.048;8.732;2023-05-23T05:08:31;101532.13;;;13.32;100.00
43745;BME280;29359;53.048;8.732;2023-05-23T05:10:33;101541.03;;;13.30;100.00
43745;BME280;29359;53.048;8.732;2023-05-23T05:12:38;101543.75;;;13.27;100.00
43745;BME280;29359;53.048;8.732;2023-05-23T05:14:48;101542.06;;;13.24;100.00
43745;BME280;29359;53.048;8.732;2023-05-23T05:16:49;101546.53;;;13.22;100.00
43745;BME280;29359;53.048;8.732;2023-05-23T05:18:51;101552.75;;;13.21;100.00
43745;BME280;29359;53.048;8.732;2023-05-23T05:20:53;101554.59;;;13.19;100.00
43745;BME280;29359;53.048;8.732;2023-05-23T05:22:56;101551.94;;;13.19;100.00
43745;BME280;29359;53.048;8.732;2023-05-23T05:24:58;101550.22;;;13.16;100.00
43745;BME280;29359;53.048;8.732;2023-05-23T05:27:00;101559.06;;;13.15;100.00
43745;BME280;29359;53.048;8.732;2023-05-23T05:29:01;101560.03;;;13.13;100.00
43745;BME280;29359;53.048;8.732;2023-05-23T05:31:03;101566.19;;;13.13;100.00
43745;BME280;29359;53.048;8.732;2023-05-23T05:33:05;101564.47;;;13.12;100.00
43745;BME280;29359;53.048;8.732;2023-05-23T05:35:08;101575.09;;;13.11;100.00
43745;BME280;29359;53.048;8.732;2023-05-23T05:37:10;101574.28;;;13.09;100.00
43745;BME280;29359;53.048;8.732;2023-05-23T05:39:14;101578.78;;;13.05;100.00
43745;BME280;29359;53.048;8.732;2023-05-23T05:41:16;101586.78;;;13.04;100.00
43745;BME280;29359;53.048;8.732;2023-05-23T05:43:17;101584.13;;;13.04;100.00
43745;BME280;29359;53.048;8.732;2023-05-23T05:45:19;101586.78;;;13.04;100.00
43745;BME280;29359;53.048;8.732;2023-05-23T05:47:20;101587.69;;;13.03;100.00
43745;BME280;29359;53.048;8.732;2023-05-23T05:49:22;101598.31;;;13.03;100.00
43745;BME280;29359;53.048;8.732;2023-05-23T05:51:23;101598.34;;;13.00;100.00
43745;BME280;29359;53.048;8.732;2023-05-23T05:53:25;101592.22;;;12.98;100.00
43745;BME280;29359;53.048;8.732;2023-05-23T05:55:27;101597.59;;;12.95;100.00
43745;BME280;29359;53.048;8.732;2023-05-23T05:57:31;101604.75;;;12.91;100.00
43745;BME280;29359;53.048;8.732;2023-05-23T05:59:33;101608.44;;;12.85;100.00
43745;BME280;29359;53.048;8.732;2023-05-23T06:01:35;101611.22;;;12.81;100.00
43745;BME280;29359;53.048;8.732;2023-05-23T06:03:38;101620.25;;;12.72;100.00
43745;BME280;29359;53.048;8.732;2023-05-23T06:05:40;101618.59;;;12.68;100.00
43745;BME280;29359;53.048;8.732;2023-05-23T06:07:42;101615.94;;;12.68;100.00
43745;BME280;29359;53.048;8.732;2023-05-23T06:09:44;101625.88;;;12.60;100.00
43745;BME280;29359;53.048;8.732;2023-05-23T06:11:45;101630.31;;;12.56;100.00
43745;BME280;29359;53.048;8.732;2023-05-23T06:13:47;101640.97;;;12.55;100.00
43745;BME280;29359;53.048;8.732;2023-05-23T06:15:48;101637.50;;;12.51;100.00
43745;BME280;29359;53.048;8.732;2023-05-23T06:17:50;101646.41;;;12.49;100.00
43745;BME280;29359;53.048;8.732;2023-05-23T06:19:52;101644.72;;;12.45;100.00
43745;BME280;29359;53.048;8.732;2023-05-23T06:21:57;101643.06;;;12.41;100.00
43745;BME280;29359;53.048;8.732;2023-05-23T06:23:58;101644.84;;;12.40;100.00
43745;BME280;29359;53.048;8.732;2023-05-23T06:26:00;101649.19;;;12.43;100.00
43745;BME280;29359;53.048;8.732;2023-05-23T06:28:02;101644.84;;;12.40;100.00
43745;BME280;29359;53.048;8.732;2023-05-23T06:30:04;101649.28;;;12.40;100.00
43745;BME280;29359;53.048;8.732;2023-05-23T06:32:06;101650.19;;;12.39;100.00
43745;BME280;29359;53.048;8.732;2023-05-23T06:34:08;101659.84;;;12.40;100.00
43745;BME280;29359;53.048;8.732;2023-05-23T06:36:09;101659.03;;;12.38;100.00
43745;BME280;29359;53.048;8.732;2023-05-23T06:38:11;101662.53;;;12.38;100.00
43745;BME280;29359;53.048;8.732;2023-05-23T06:40:12;101663.44;;;12.37;100.00
43745;BME280;29359;53.048;8.732;2023-05-23T06:42:14;101672.34;;;12.35;100.00
43745;BME280;29359;53.048;8.732;2023-05-23T06:44:16;101675.03;;;12.33;100.00
43745;BME280;29359;53.048;8.732;2023-05-23T06:46:18;101671.44;;;12.36;100.00
43745;BME280;29359;53.048;8.732;2023-05-23T06:48:20;101688.25;;;12.33;100.00
43745;BME280;29359;53.048;8.732;2023-05-23T06:50:21;101682.97;;;12.33;100.00
43745;BME280;29359;53.048;8.732;2023-05-23T06:52:23;101682.97;;;12.33;100.00
43745;BME280;29359;53.048;8.732;2023-05-23T06:54:24;101685.59;;;12.33;100.00
43745;BME280;29359;53.048;8.732;2023-05-23T06:56:26;101698.88;;;12.32;100.00
43745;BME280;29359;53.048;8.732;2023-05-23T06:58:28;101706.84;;;12.30;100.00
43745;BME280;29359;53.048;8.732;2023-05-23T07:00:30;101702.50;;;12.27;100.00
43745;BME280;29359;53.048;8.732;2023-05-23T07:02:32;101704.25;;;12.29;100.00
43745;BME280;29359;53.048;8.732;2023-05-23T07:04:33;101713.94;;;12.30;100.00
43745;BME280;29359;53.048;8.732;2023-05-23T07:06:35;101716.59;;;12.28;100.00
43745;BME280;29359;53.048;8.732;2023-05-23T07:08:37;101718.41;;;12.26;100.00
43745;BME280;29359;53.048;8.732;2023-05-23T07:10:39;101720.22;;;12.24;100.00
43745;BME280;29359;53.048;8.732;2023-05-23T07:12:43;101717.63;;;12.22;100.00
43745;BME280;29359;53.048;8.732;2023-05-23T07:14:45;101728.22;;;12.22;100.00
43745;BME280;29359;53.048;8.732;2023-05-23T07:16:46;101728.25;;;12.21;100.00
43745;BME280;29359;53.048;8.732;2023-05-23T07:18:48;101730.00;;;12.20;100.00
43745;BME280;29359;53.048;8.732;2023-05-23T07:20:49;101726.47;;;12.21;100.00
43745;BME280;29359;53.048;8.732;2023-05-23T07:22:51;101731.75;;;12.21;100.00
43745;BME280;29359;53.048;8.732;2023-05-23T07:24:53;101739.69;;;12.21;100.00
43745;BME280;29359;53.048;8.732;2023-05-23T07:26:54;101754.69;;;12.22;100.00
43745;BME280;29359;53.048;8.732;2023-05-23T07:28:57;101745.88;;;12.22;99.83
43745;BME280;29359;53.048;8.732;2023-05-23T07:30:58;101752.94;;;12.21;100.00
43745;BME280;29359;53.048;8.732;2023-05-23T07:33:00;101760.97;;;12.17;99.62
43745;BME280;29359;53.048;8.732;2023-05-23T07:35:02;101760.16;;;12.12;99.73
43745;BME280;29359;53.048;8.732;2023-05-23T07:37:04;101762.00;;;12.08;99.56
43745;BME280;29359;53.048;8.732;2023-05-23T07:39:05;101765.63;;;12.03;99.23
43745;BME280;29359;53.048;8.732;2023-05-23T07:41:07;101771.00;;;12.00;99.53
43745;BME280;29359;53.048;8.732;2023-05-23T07:43:12;101775.44;;;11.98;99.53
43745;BME280;29359;53.048;8.732;2023-05-23T07:45:14;101782.53;;;11.95;98.56
43745;BME280;29359;53.048;8.732;2023-05-23T07:47:16;101774.50;;;12.00;97.53
43745;BME280;29359;53.048;8.732;2023-05-23T07:49:17;101788.75;;;11.93;97.06
43745;BME280;29359;53.048;8.732;2023-05-23T07:51:19;101788.88;;;11.87;97.86
43745;BME280;29359;53.048;8.732;2023-05-23T07:53:21;101791.69;;;11.78;98.32
43745;BME280;29359;53.048;8.732;2023-05-23T07:55:23;101797.03;;;11.73;99.06
43745;BME280;29359;53.048;8.732;2023-05-23T07:57:25;101801.44;;;11.73;99.27
43745;BME280;29359;53.048;8.732;2023-05-23T07:59:27;101800.59;;;11.71;99.48
43745;BME280;29359;53.048;8.732;2023-05-23T08:01:30;101801.44;;;11.73;99.90
43745;BME280;29359;53.048;8.732;2023-05-23T08:03:31;101810.28;;;11.72;99.74
43745;BME280;29359;53.048;8.732;2023-05-23T08:05:33;101819.16;;;11.68;99.89
43745;BME280;29359;53.048;8.732;2023-05-23T08:07:34;101822.63;;;11.70;99.50
43745;BME280;29359;53.048;8.732;2023-05-23T08:09:37;101819.16;;;11.68;99.67
43745;BME280;29359;53.048;8.732;2023-05-23T08:11:38;101812.97;;;11.67;99.99
43745;BME280;29359;53.048;8.732;2023-05-23T08:13:40;101819.19;;;11.64;99.86
43745;BME280;29359;53.048;8.732;2023-05-23T08:15:42;101828.97;;;11.59;100.00
43745;BME280;29359;53.048;8.732;2023-05-23T08:17:43;101833.47;;;11.54;100.00
43745;BME280;29359;53.048;8.732;2023-05-23T08:19:45;101845.81;;;11.54;100.00
43745;BME280;29359;53.048;8.732;2023-05-23T08:21:47;101846.75;;;11.51;100.00
43745;BME280;29359;53.048;8.732;2023-05-23T08:23:48;101834.47;;;11.47;100.00
43745;BME280;29359;53.048;8.732;2023-05-23T08:25:51;101839.81;;;11.44;100.00
43745;BME280;29359;53.048;8.732;2023-05-23T08:27:52;101855.75;;;11.40;100.00
43745;BME280;29359;53.048;8.732;2023-05-23T08:29:54;101853.13;;;11.38;100.00
43745;BME280;29359;53.048;8.732;2023-05-23T08:31:56;101854.88;;;11.39;100.00
43745;BME280;29359;53.048;8.732;2023-05-23T08:33:57;101856.66;;;11.39;100.00
43745;BME280;29359;53.048;8.732;2023-05-23T08:35:59;101856.69;;;11.37;99.55
43745;BME280;29359;53.048;8.732;2023-05-23T08:38:03;101854.84;;;11.42;98.21
43745;BME280;29359;53.048;8.732;2023-05-23T08:40:06;101869.81;;;11.42;97.83
43745;BME280;29359;53.048;8.732;2023-05-23T08:42:09;101863.66;;;11.41;97.88
43745;BME280;29359;53.048;8.732;2023-05-23T08:44:11;101874.22;;;11.43;97.58
43745;BME280;29359;53.048;8.732;2023-05-23T08:46:14;101868.09;;;11.39;97.63
43745;BME280;29359;53.048;8.732;2023-05-23T08:48:18;101876.94;;;11.38;97.39
43745;BME280;29359;53.048;8.732;2023-05-23T08:50:20;101877.78;;;11.40;97.17
43745;BME280;29359;53.048;8.732;2023-05-23T08:52:24;101883.13;;;11.37;97.12
43745;BME280;29359;53.048;8.732;2023-05-23T08:54:28;101876.91;;;11.40;96.93
43745;BME280;29359;53.048;8.732;2023-05-23T08:56:30;101884.84;;;11.40;95.90
43745;BME280;29359;53.048;8.732;2023-05-23T08:58:34;101879.47;;;11.44;95.85
43745;BME280;29359;53.048;8.732;2023-05-23T09:00:36;101886.44;;;11.50;95.39
43745;BME280;29359;53.048;8.732;2023-05-23T09:02:37;101891.63;;;11.56;94.14
43745;BME280;29359;53.048;8.732;2023-05-23T09:04:39;101888.97;;;11.57;93.46
43745;BME280;29359;53.048;8.732;2023-05-23T09:06:41;101899.53;;;11.57;92.93
43745;BME280;29359;53.048;8.732;2023-05-23T09:08:43;101897.84;;;11.53;92.12
43745;BME280;29359;53.048;8.732;2023-05-23T09:10:49;101893.47;;;11.51;92.04
43745;BME280;29359;53.048;8.732;2023-05-23T09:12:51;101903.22;;;11.49;92.23
43745;BME280;29359;53.048;8.732;2023-05-23T09:14:52;101903.19;;;11.50;92.29
43745;BME280;29359;53.048;8.732;2023-05-23T09:16:59;101906.69;;;11.52;92.58
43745;BME280;29359;53.048;8.732;2023-05-23T09:19:12;101918.16;;;11.51;92.03
43745;BME280;29359;53.048;8.732;2023-05-23T09:21:14;101917.22;;;11.54;91.77
43745;BME280;29359;53.048;8.732;2023-05-23T09:23:16;101917.13;;;11.60;91.35
43745;BME280;29359;53.048;8.732;2023-05-23T09:25:17;101926.78;;;11.64;90.57
43745;BME280;29359;53.048;8.732;2023-05-23T09:27:20;101934.69;;;11.65;89.48
43745;BME280;29359;53.048;8.732;2023-05-23T09:29:22;101939.97;;;11.65;89.10
43745;BME280;29359;53.048;8.732;2023-05-23T09:31:27;101932.94;;;11.64;89.18
43745;BME280;29359;53.048;8.732;2023-05-23T09:33:35;101950.53;;;11.67;88.90
43745;BME280;29359;53.048;8.732;2023-05-23T09:35:43;101937.28;;;11.69;88.45
43745;BME280;29359;53.048;8.732;2023-05-23T09:37:45;101939.91;;;11.72;87.67
43745;BME280;29359;53.048;8.732;2023-05-23T09:39:47;101948.69;;;11.75;87.57
43745;BME280;29359;53.048;8.732;2023-05-23T09:41:49;101955.69;;;11.79;85.96
43745;BME280;29359;53.048;8.732;2023-05-23T09:43:52;101948.66;;;11.78;86.14
43745;BME280;29359;53.048;8.732;2023-05-23T09:45:54;101953.97;;;11.75;86.11
43745;BME280;29359;53.048;8.732;2023-05-23T09:48:00;101953.97;;;11.75;85.99
43745;BME280;29359;53.048;8.732;2023-05-23T09:50:02;101953.06;;;11.78;85.06
43745;BME280;29359;53.048;8.732;2023-05-23T09:52:04;101957.44;;;11.82;84.91
43745;BME280;29359;53.048;8.732;2023-05-23T09:54:05;101961.72;;;11.89;84.19
43745;BME280;29359;53.048;8.732;2023-05-23T09:56:09;101965.88;;;12.04;82.67
43745;BME280;29359;53.048;8.732;2023-05-23T09:58:12;101970.09;;;12.18;81.91
43745;BME280;29359;53.048;8.732;2023-05-23T10:00:14;101966.25;;;12.36;79.48
43745;BME280;29359;53.048;8.732;2023-05-23T10:02:39;101969.53;;;12.49;78.37
43745;BME280;29359;53.048;8.732;2023-05-23T10:04:46;101978.53;;;12.40;78.55
43745;BME280;29359;53.048;8.732;2023-05-23T10:06:50;101972.34;;;12.40;78.75
43745;BME280;29359;53.048;8.732;2023-05-23T10:08:56;101974.13;;;12.39;77.97
43745;BME280;29359;53.048;8.732;2023-05-23T10:13:13;101980.13;;;12.49;76.36
43745;BME280;29359;53.048;8.732;2023-05-23T10:15:15;101970.97;;;12.68;76.26
43745;BME280;29359;53.048;8.732;2023-05-23T10:17:35;101978.47;;;12.91;74.73
43745;BME280;29359;53.048;8.732;2023-05-23T10:19:43;101975.47;;;13.09;74.14
43745;BME280;29359;53.048;8.732;2023-05-23T10:21:50;101981.59;;;13.13;73.96
43745;BME280;29359;53.048;8.732;2023-05-23T10:23:54;101973.53;;;13.19;73.70
43745;BME280;29359;53.048;8.732;2023-05-23T10:25:58;101983.25;;;13.20;72.88
43745;BME280;29359;53.048;8.732;2023-05-23T10:28:01;101984.06;;;13.22;71.86
43745;BME280;29359;53.048;8.732;2023-05-23T10:30:08;101994.72;;;13.20;70.41
43745;BME280;29359;53.048;8.732;2023-05-23T10:32:10;101991.19;;;13.20;69.41
43745;BME280;29359;53.048;8.732;2023-05-23T10:34:21;101984.06;;;13.22;69.60
43745;BME280;29359;53.048;8.732;2023-05-23T10:36:42;101985.72;;;13.28;69.50
43745;BME280;29359;53.048;8.732;2023-05-23T10:39:03;101997.72;;;13.47;69.01
43745;BME280;29359;53.048;8.732;2023-05-23T10:41:10;101993.22;;;13.50;68.87
43745;BME280;29359;53.048;8.732;2023-05-23T10:43:19;102000.13;;;13.58;70.52